createdAt,value
2023-03-08T00:02:06.397Z,3.91
2023-03-08T00:04:38.022Z,3.90
2023-03-08T00:07:09.743Z,3.88
2023-03-08T00:09:41.315Z,3.89
2023-03-08T00:12:13.917Z,3.87
2023-03-08T00:14:45.962Z,3.84
2023-03-08T00:17:18.120Z,3.84
2023-03-08T00:19:51.939Z,3.79
2023-03-08T00:22:25.257Z,3.72
2023-03-08T00:24:57.175Z,3.61
2023-03-08T00:27:28.788Z,3.62
2023-03-08T00:30:00.869Z,3.59
2023-03-08T00:32:32.590Z,3.55
2023-03-08T00:35:04.697Z,3.56
2023-03-08T00:37:36.250Z,3.53
2023-03-08T00:40:08.898Z,3.52
2023-03-08T00:42:40.434Z,3.45
2023-03-08T00:45:12.122Z,3.46
2023-03-08T00:47:43.647Z,3.47
2023-03-08T00:50:15.426Z,3.40
2023-03-08T00:52:47.014Z,3.44
2023-03-08T00:55:18.592Z,3.46
2023-03-08T00:57:50.178Z,3.53
2023-03-08T01:00:21.960Z,3.50
2023-03-08T01:02:53.821Z,3.54
2023-03-08T01:05:25.373Z,3.52
2023-03-08T01:07:56.876Z,3.39
2023-03-08T01:10:28.376Z,3.31
2023-03-08T01:12:59.883Z,3.31
2023-03-08T01:15:35.901Z,3.23
2023-03-08T01:18:07.485Z,3.24
2023-03-08T01:20:39.115Z,3.20
2023-03-08T01:23:11.154Z,3.16
2023-03-08T01:25:43.437Z,3.10
2023-03-08T01:28:14.992Z,3.12
2023-03-08T01:30:46.488Z,3.09
2023-03-08T01:33:20.964Z,3.06
2023-03-08T01:35:52.541Z,3.06
2023-03-08T01:38:25.119Z,3.05
2023-03-08T01:40:58.154Z,2.99
2023-03-08T01:43:31.669Z,2.99
2023-03-08T01:46:27.692Z,2.93
2023-03-08T01:48:59.480Z,2.92
2023-03-08T01:51:42.731Z,2.83
2023-03-08T01:54:28.505Z,2.80
2023-03-08T01:57:08.866Z,2.72
2023-03-08T01:59:40.724Z,2.74
2023-03-08T02:02:12.622Z,2.73
2023-03-08T02:04:47.410Z,2.74
2023-03-08T02:07:21.733Z,2.73
2023-03-08T02:09:53.584Z,2.69
2023-03-08T02:12:26.285Z,2.62
2023-03-08T02:14:58.456Z,2.64
2023-03-08T02:17:30.376Z,2.47
2023-03-08T02:20:10.850Z,2.47
2023-03-08T02:22:47.346Z,2.49
2023-03-08T02:25:26.957Z,2.32
2023-03-08T02:27:58.645Z,2.30
2023-03-08T02:30:37.252Z,2.26
2023-03-08T02:33:09.044Z,2.24
2023-03-08T02:35:42.768Z,2.19
2023-03-08T02:38:16.778Z,2.17
2023-03-08T02:40:51.423Z,2.17
2023-03-08T02:43:23.016Z,2.15
2023-03-08T02:45:54.850Z,2.17
2023-03-08T02:48:26.397Z,2.17
2023-03-08T02:50:57.956Z,2.20
2023-03-08T02:53:29.773Z,2.18
2023-03-08T02:56:01.369Z,2.20
2023-03-08T02:58:32.969Z,2.19
2023-03-08T03:01:10.936Z,2.02
2023-03-08T03:03:42.829Z,1.93
2023-03-08T03:06:19.832Z,1.97
2023-03-08T03:08:51.993Z,2.01
2023-03-08T03:11:23.937Z,2.05
2023-03-08T03:14:00.341Z,2.01
2023-03-08T03:16:32.563Z,2.03
2023-03-08T03:19:04.315Z,2.11
2023-03-08T03:21:36.260Z,1.97
2023-03-08T03:24:07.981Z,2.01
2023-03-08T03:26:39.743Z,2.07
2023-03-08T03:29:11.353Z,2.13
2023-03-08T03:31:42.904Z,2.08
2023-03-08T03:34:14.544Z,2.09
2023-03-08T03:36:46.289Z,2.06
2023-03-08T03:39:17.909Z,2.10
2023-03-08T03:41:49.455Z,2.15
2023-03-08T03:44:21.023Z,2.16
2023-03-08T03:46:52.879Z,2.21
2023-03-08T03:49:24.903Z,2.23
2023-03-08T03:51:57.227Z,2.24
2023-03-08T03:54:28.626Z,2.27
2023-03-08T03:57:01.030Z,2.22
2023-03-08T03:59:34.033Z,2.27
2023-03-08T04:02:05.690Z,2.30
2023-03-08T04:04:37.907Z,2.37
2023-03-08T04:07:11.979Z,2.43
2023-03-08T04:09:43.657Z,2.44
2023-03-08T04:12:15.448Z,2.49
2023-03-08T04:14:47.099Z,2.51
2023-03-08T04:17:19.745Z,2.57
2023-03-08T04:19:51.452Z,2.58
2023-03-08T04:22:23.336Z,2.64
2023-03-08T04:24:54.884Z,2.67
2023-03-08T04:27:26.705Z,2.63
2023-03-08T04:29:58.251Z,2.62
2023-03-08T04:32:34.506Z,2.62
2023-03-08T04:35:06.366Z,2.60
2023-03-08T04:37:39.017Z,2.64
2023-03-08T04:40:11.211Z,2.69
2023-03-08T04:42:43.608Z,2.72
2023-03-08T04:45:15.446Z,2.69
2023-03-08T04:47:46.960Z,2.73
2023-03-08T04:50:18.603Z,2.66
2023-03-08T04:52:50.148Z,2.68
2023-03-08T04:55:23.028Z,2.65
2023-03-08T04:57:55.951Z,2.63
2023-03-08T05:00:27.525Z,2.66
2023-03-08T05:02:59.353Z,2.70
2023-03-08T05:05:30.821Z,2.66
2023-03-08T05:08:08.197Z,2.59
2023-03-08T05:10:39.719Z,2.60
2023-03-08T05:13:11.303Z,2.57
2023-03-08T05:15:43.382Z,2.55
2023-03-08T05:18:15.164Z,2.58
2023-03-08T05:21:02.422Z,2.58
2023-03-08T05:23:34.533Z,2.57
2023-03-08T05:26:08.316Z,2.60
2023-03-08T05:28:42.173Z,2.60
2023-03-08T05:31:24.279Z,2.64
2023-03-08T05:33:55.938Z,2.71
2023-03-08T05:36:27.662Z,2.73
2023-03-08T05:38:59.147Z,2.71
2023-03-08T05:41:30.886Z,2.74
2023-03-08T05:44:02.403Z,2.75
2023-03-08T05:46:34.379Z,2.80
2023-03-08T05:49:06.927Z,2.79
2023-03-08T05:51:38.462Z,2.82
2023-03-08T05:54:11.804Z,2.84
2023-03-08T05:56:43.355Z,2.80
2023-03-08T05:59:15.160Z,2.81
2023-03-08T06:01:47.793Z,2.83
2023-03-08T06:04:19.318Z,2.79
2023-03-08T06:06:50.891Z,2.84
2023-03-08T06:09:22.397Z,2.89
2023-03-08T06:11:54.081Z,2.88
2023-03-08T06:14:25.587Z,2.83
2023-03-08T06:16:57.151Z,2.88
2023-03-08T06:19:28.800Z,2.92
2023-03-08T06:22:00.326Z,3.00
2023-03-08T06:24:31.786Z,3.09
2023-03-08T06:27:03.342Z,3.17
2023-03-08T06:29:35.394Z,3.23
2023-03-08T06:32:10.077Z,3.33
2023-03-08T06:34:41.776Z,3.42
2023-03-08T06:37:14.027Z,3.46
2023-03-08T06:39:45.586Z,3.51
2023-03-08T06:42:17.722Z,3.53
2023-03-08T06:44:49.178Z,3.57
2023-03-08T06:47:20.981Z,3.61
2023-03-08T06:49:53.542Z,3.66
2023-03-08T06:52:26.461Z,3.71
2023-03-08T06:54:57.929Z,3.76
2023-03-08T06:57:29.525Z,3.78
2023-03-08T07:00:01.333Z,3.85
2023-03-08T07:02:32.845Z,3.86
2023-03-08T07:05:04.834Z,3.93
2023-03-08T07:07:36.988Z,4.01
2023-03-08T07:10:11.066Z,4.02
2023-03-08T07:12:43.778Z,4.08
2023-03-08T07:15:19.050Z,4.15
2023-03-08T07:17:52.421Z,4.19
2023-03-08T07:20:26.365Z,4.26
2023-03-08T07:23:01.605Z,4.26
2023-03-08T07:25:33.190Z,4.28
2023-03-08T07:28:05.000Z,4.33
2023-03-08T07:30:36.549Z,4.34
2023-03-08T07:33:11.478Z,4.40
2023-03-08T07:35:43.156Z,4.46
2023-03-08T07:38:15.231Z,4.53
2023-03-08T07:40:54.912Z,4.60
2023-03-08T07:43:26.887Z,4.69
2023-03-08T07:46:02.606Z,4.77
2023-03-08T07:48:34.456Z,4.85
2023-03-08T07:51:08.774Z,4.93
2023-03-08T07:53:40.377Z,4.97
2023-03-08T07:56:12.009Z,5.04
2023-03-08T07:58:45.059Z,5.13
2023-03-08T08:01:17.056Z,5.25
2023-03-08T08:03:48.608Z,5.37
2023-03-08T08:06:20.244Z,5.47
2023-03-08T08:08:52.181Z,5.55
2023-03-08T08:11:23.807Z,5.69
2023-03-08T08:13:55.810Z,5.82
2023-03-08T08:16:27.590Z,5.95
2023-03-08T08:18:59.761Z,6.08
2023-03-08T08:21:31.321Z,6.22
2023-03-08T08:24:03.027Z,6.31
2023-03-08T08:26:34.603Z,6.35
2023-03-08T08:29:06.435Z,6.32
2023-03-08T08:31:38.284Z,6.29
2023-03-08T08:34:10.338Z,6.28
2023-03-08T08:36:41.885Z,6.31
2023-03-08T08:39:13.365Z,6.29
2023-03-08T08:41:45.165Z,6.23
2023-03-08T08:44:16.745Z,6.28
2023-03-08T08:46:49.377Z,6.31
2023-03-08T08:49:21.013Z,6.29
2023-03-08T08:51:53.465Z,6.24
2023-03-08T08:54:24.919Z,6.27
2023-03-08T08:56:56.478Z,6.27
2023-03-08T08:59:28.252Z,6.36
2023-03-08T09:01:59.826Z,6.40
2023-03-08T09:04:31.480Z,6.45
2023-03-08T09:07:07.512Z,6.44
2023-03-08T09:09:39.062Z,6.51
2023-03-08T09:12:10.801Z,6.47
2023-03-08T09:14:42.416Z,6.58
2023-03-08T09:17:13.982Z,6.64
2023-03-08T09:19:45.510Z,6.58
2023-03-08T09:22:17.173Z,6.49
2023-03-08T09:24:51.640Z,6.51
2023-03-08T09:27:23.175Z,6.53
2023-03-08T09:29:54.666Z,6.47
2023-03-08T09:32:26.893Z,6.46
2023-03-08T09:34:58.450Z,6.54
2023-03-08T09:37:30.046Z,6.61
2023-03-08T09:40:02.105Z,6.70
2023-03-08T09:42:34.144Z,6.77
2023-03-08T09:45:10.409Z,6.88
2023-03-08T09:47:51.929Z,6.90
2023-03-08T09:50:23.463Z,7.03
2023-03-08T09:53:00.315Z,7.00
2023-03-08T09:55:34.896Z,7.14
2023-03-08T09:58:39.555Z,7.23
2023-03-08T10:01:32.826Z,7.43
2023-03-08T10:04:19.492Z,7.60
2023-03-08T10:07:12.478Z,7.77
2023-03-08T10:09:55.492Z,7.71
2023-03-08T10:12:36.122Z,7.58
2023-03-08T10:15:16.552Z,7.37
2023-03-08T10:18:00.888Z,7.33
2023-03-08T10:20:37.463Z,7.33
2023-03-08T10:23:22.047Z,7.25
2023-03-08T10:25:53.603Z,7.28
2023-03-08T10:28:26.531Z,7.35
2023-03-08T10:31:04.407Z,7.33
2023-03-08T10:33:36.565Z,7.35
2023-03-08T10:36:25.426Z,7.37
2023-03-08T10:39:13.501Z,7.43
2023-03-08T10:41:49.561Z,7.46
2023-03-08T10:44:33.816Z,7.49
2023-03-08T10:47:17.731Z,7.53
2023-03-08T10:49:49.645Z,7.56
2023-03-08T10:52:26.645Z,7.52
2023-03-08T10:55:05.652Z,7.46
2023-03-08T10:57:38.286Z,7.49
2023-03-08T11:00:40.832Z,7.55
2023-03-08T11:03:20.994Z,7.50
2023-03-08T11:05:57.053Z,7.31
2023-03-08T11:08:35.489Z,7.35
2023-03-08T11:11:13.027Z,7.29
2023-03-08T11:13:46.874Z,7.29
2023-03-08T11:16:23.425Z,7.29
2023-03-08T11:19:06.690Z,7.25
2023-03-08T11:22:06.099Z,7.21
2023-03-08T11:25:02.055Z,7.17
2023-03-08T11:27:52.510Z,7.14
2023-03-08T11:30:29.885Z,7.17
2023-03-08T11:33:31.750Z,7.16
2023-03-08T11:36:40.694Z,7.14
2023-03-08T11:39:35.158Z,7.23
2023-03-08T11:42:20.084Z,7.29
2023-03-08T11:45:38.198Z,7.37
2023-03-08T11:48:46.086Z,7.42
2023-03-08T11:51:23.339Z,7.51
2023-03-08T11:54:01.265Z,7.63
2023-03-08T11:56:55.011Z,7.79
2023-03-08T11:59:53.230Z,7.90
2023-03-08T12:02:34.608Z,8.00
2023-03-08T12:05:29.764Z,8.08
2023-03-08T12:08:16.831Z,8.16
2023-03-08T12:10:54.629Z,8.25
2023-03-08T12:13:35.423Z,8.37
2023-03-08T12:16:29.178Z,8.48
2023-03-08T12:19:31.142Z,8.59
2023-03-08T12:22:34.696Z,8.72
2023-03-08T12:25:24.985Z,8.80
2023-03-08T12:28:05.698Z,8.85
2023-03-08T12:31:01.991Z,8.95
2023-03-08T12:33:34.424Z,8.99
2023-03-08T12:36:08.011Z,9.17
2023-03-08T12:38:45.967Z,9.28
2023-03-08T12:41:30.305Z,9.34
2023-03-08T12:44:21.649Z,9.52
2023-03-08T12:47:23.992Z,9.70
2023-03-08T12:49:56.750Z,9.78
2023-03-08T12:52:35.427Z,9.73
2023-03-08T12:55:17.314Z,9.69
2023-03-08T12:57:53.211Z,9.77
2023-03-08T13:00:36.449Z,9.83
2023-03-08T13:03:13.938Z,9.91
2023-03-08T13:05:47.732Z,10.00
2023-03-08T13:08:27.261Z,10.12
2023-03-08T13:11:10.630Z,10.33
2023-03-08T13:13:57.523Z,10.65
2023-03-08T13:16:35.579Z,10.95
2023-03-08T13:19:16.740Z,11.50
2023-03-08T13:22:13.200Z,11.87
2023-03-08T13:24:58.214Z,12.34
2023-03-08T13:28:02.276Z,12.80
2023-03-08T13:30:37.533Z,12.81
2023-03-08T13:33:19.001Z,13.23
2023-03-08T13:35:59.645Z,14.62
2023-03-08T13:38:34.158Z,15.33
2023-03-08T13:41:05.685Z,14.61
2023-03-08T13:43:37.225Z,13.92
2023-03-08T13:46:16.537Z,13.99
2023-03-08T13:48:48.562Z,14.94
2023-03-08T13:51:23.542Z,14.62
2023-03-08T13:53:57.080Z,13.62
2023-03-08T13:56:28.846Z,14.16
2023-03-08T13:59:00.691Z,14.57
2023-03-08T14:01:32.268Z,14.80
2023-03-08T14:04:11.782Z,14.40
2023-03-08T14:06:52.971Z,13.63
2023-03-08T14:09:28.617Z,12.91
2023-03-08T14:12:04.874Z,12.60
2023-03-08T14:14:40.608Z,12.31
2023-03-08T14:17:22.271Z,12.50
2023-03-08T14:20:17.240Z,12.29
2023-03-08T14:22:51.370Z,12.04
2023-03-08T14:25:31.965Z,11.93
2023-03-08T14:28:03.622Z,11.94
2023-03-08T14:30:36.396Z,11.94
2023-03-08T14:33:16.755Z,11.97
2023-03-08T14:36:00.391Z,12.14
2023-03-08T14:38:34.349Z,12.59
2023-03-08T14:41:11.593Z,13.32
2023-03-08T14:43:51.043Z,13.80
2023-03-08T14:46:24.198Z,14.26
2023-03-08T14:49:04.887Z,14.96
2023-03-08T14:51:43.121Z,14.36
2023-03-08T14:54:32.894Z,14.15
2023-03-08T14:57:28.327Z,15.59
2023-03-08T15:00:14.244Z,15.66
2023-03-08T15:02:45.818Z,16.15
2023-03-08T15:05:28.794Z,16.95
2023-03-08T15:08:00.956Z,17.78
2023-03-08T15:10:37.767Z,16.28
2023-03-08T15:13:19.077Z,16.02
2023-03-08T15:15:50.832Z,14.92
2023-03-08T15:18:22.504Z,14.61
2023-03-08T15:20:54.130Z,14.90
2023-03-08T15:23:35.498Z,14.62
2023-03-08T15:26:07.778Z,15.37
2023-03-08T15:28:39.506Z,16.14
2023-03-08T15:31:11.100Z,16.45
2023-03-08T15:33:42.679Z,15.78
2023-03-08T15:36:16.599Z,14.85
2023-03-08T15:38:48.424Z,14.08
2023-03-08T15:41:20.403Z,14.64
2023-03-08T15:43:54.464Z,14.31
2023-03-08T15:46:28.561Z,14.21
2023-03-08T15:49:00.215Z,13.67
2023-03-08T15:51:34.570Z,13.37
2023-03-08T15:54:07.399Z,13.02
2023-03-08T15:56:38.910Z,12.93
2023-03-08T15:59:10.594Z,12.45
2023-03-08T16:01:42.244Z,12.46
2023-03-08T16:04:13.914Z,12.35
2023-03-08T16:06:45.426Z,12.26
2023-03-08T16:09:17.005Z,12.06
2023-03-08T16:11:48.548Z,12.04
2023-03-08T16:14:20.197Z,11.93
2023-03-08T16:16:51.743Z,11.83
2023-03-08T16:19:24.671Z,11.85
2023-03-08T16:21:56.212Z,11.70
2023-03-08T16:24:28.978Z,11.58
2023-03-08T16:27:00.631Z,11.53
2023-03-08T16:29:33.592Z,11.47
2023-03-08T16:32:05.509Z,11.42
2023-03-08T16:34:37.892Z,11.37
2023-03-08T16:37:09.319Z,11.31
2023-03-08T16:39:41.991Z,11.28
2023-03-08T16:42:13.932Z,11.16
2023-03-08T16:44:50.617Z,11.13
2023-03-08T16:47:23.957Z,11.04
2023-03-08T16:49:55.708Z,10.95
2023-03-08T16:52:27.580Z,10.91
2023-03-08T16:54:59.112Z,10.72
2023-03-08T16:57:30.780Z,10.70
2023-03-08T17:00:02.303Z,10.67
2023-03-08T17:02:33.952Z,10.58
2023-03-08T17:05:06.659Z,10.57
2023-03-08T17:07:38.624Z,10.52
2023-03-08T17:10:10.762Z,10.47
2023-03-08T17:12:42.295Z,10.47
2023-03-08T17:15:13.823Z,10.47
2023-03-08T17:17:45.317Z,10.44
2023-03-08T17:20:17.061Z,10.43
2023-03-08T17:22:48.764Z,10.46
2023-03-08T17:25:20.441Z,10.41
2023-03-08T17:27:51.992Z,10.46
2023-03-08T17:30:23.828Z,10.45
2023-03-08T17:32:55.639Z,10.41
2023-03-08T17:35:27.468Z,10.44
2023-03-08T17:37:59.161Z,10.43
2023-03-08T17:40:30.677Z,10.45
2023-03-08T17:43:02.842Z,10.47
2023-03-08T17:45:34.425Z,10.49
2023-03-08T17:48:06.053Z,10.51
2023-03-08T17:50:37.640Z,10.52
2023-03-08T17:53:12.618Z,10.48
2023-03-08T17:55:44.342Z,10.49
2023-03-08T17:58:15.944Z,10.44
2023-03-08T18:00:47.474Z,10.42
2023-03-08T18:03:19.141Z,10.42
2023-03-08T18:05:52.996Z,10.41
2023-03-08T18:08:24.480Z,10.43
2023-03-08T18:10:56.136Z,10.41
2023-03-08T18:13:27.686Z,10.41
2023-03-08T18:15:59.834Z,10.41
2023-03-08T18:18:31.604Z,10.38
2023-03-08T18:21:13.494Z,10.36
2023-03-08T18:23:46.564Z,10.34
2023-03-08T18:26:19.140Z,10.35
2023-03-08T18:28:50.993Z,10.36
2023-03-08T18:31:26.036Z,10.34
2023-03-08T18:33:57.815Z,10.35
2023-03-08T18:36:29.381Z,10.38
2023-03-08T18:39:02.849Z,10.38
2023-03-08T18:41:35.369Z,10.40
2023-03-08T18:44:07.449Z,10.43
2023-03-08T18:46:41.682Z,10.43
2023-03-08T18:49:14.793Z,10.46
2023-03-08T18:51:46.437Z,10.49
2023-03-08T18:54:20.931Z,10.52
2023-03-08T18:56:59.101Z,10.55
2023-03-08T18:59:33.650Z,10.53
2023-03-08T19:02:05.213Z,10.47
2023-03-08T19:04:41.132Z,10.39
2023-03-08T19:07:15.399Z,10.25
2023-03-08T19:09:46.923Z,10.20
2023-03-08T19:12:18.501Z,10.09
2023-03-08T19:14:52.314Z,9.79
2023-03-08T19:17:23.892Z,9.67
2023-03-08T19:19:55.407Z,9.34
2023-03-08T19:22:26.993Z,9.13
2023-03-08T19:24:58.486Z,8.79
2023-03-08T19:27:30.064Z,8.53
2023-03-08T19:30:01.826Z,8.57
2023-03-08T19:32:36.226Z,8.38
2023-03-08T19:35:09.363Z,8.35
2023-03-08T19:37:41.892Z,8.33
2023-03-08T19:40:19.520Z,8.23
2023-03-08T19:42:51.789Z,8.12
2023-03-08T19:45:25.655Z,8.19
2023-03-08T19:47:57.217Z,8.15
2023-03-08T19:50:28.774Z,8.07
2023-03-08T19:53:00.479Z,8.02
2023-03-08T19:55:32.056Z,7.89
2023-03-08T19:58:03.563Z,7.80
2023-03-08T20:00:35.151Z,7.64
2023-03-08T20:03:09.416Z,7.54
2023-03-08T20:05:45.722Z,7.50
2023-03-08T20:08:17.422Z,7.44
2023-03-08T20:10:49.816Z,7.45
2023-03-08T20:13:21.423Z,7.42
2023-03-08T20:15:52.911Z,7.46
2023-03-08T20:18:26.168Z,7.38
2023-03-08T20:20:59.179Z,7.43
2023-03-08T20:23:33.866Z,7.47
2023-03-08T20:26:06.675Z,7.47
2023-03-08T20:28:38.572Z,7.48
2023-03-08T20:31:11.463Z,7.47
2023-03-08T20:33:43.671Z,7.54
2023-03-08T20:36:16.550Z,7.57
2023-03-08T20:38:48.172Z,7.63
2023-03-08T20:41:21.616Z,7.67
2023-03-08T20:43:55.594Z,7.60
2023-03-08T20:46:32.869Z,7.56
2023-03-08T20:49:04.918Z,7.60
2023-03-08T20:51:36.495Z,7.67
2023-03-08T20:54:08.640Z,7.64
2023-03-08T20:56:41.382Z,7.74
2023-03-08T20:59:13.353Z,7.72
2023-03-08T21:01:45.621Z,7.76
2023-03-08T21:04:18.244Z,7.79
2023-03-08T21:06:51.273Z,7.78
2023-03-08T21:09:22.871Z,7.83
2023-03-08T21:11:54.420Z,7.85
2023-03-08T21:14:26.345Z,7.88
2023-03-08T21:16:57.993Z,7.91
2023-03-08T21:19:29.555Z,7.96
2023-03-08T21:22:03.285Z,7.98
2023-03-08T21:24:35.696Z,8.02
2023-03-08T21:27:08.273Z,8.00
2023-03-08T21:29:41.273Z,8.04
2023-03-08T21:32:12.824Z,8.09
2023-03-08T21:34:47.543Z,8.07
2023-03-08T21:37:20.194Z,8.11
2023-03-08T21:39:51.952Z,8.09
2023-03-08T21:42:24.569Z,8.12
2023-03-08T21:44:56.215Z,8.07
2023-03-08T21:47:27.928Z,8.09
2023-03-08T21:49:59.615Z,8.10
2023-03-08T21:52:31.107Z,8.13
2023-03-08T21:55:02.651Z,8.08
2023-03-08T21:57:34.306Z,8.12
2023-03-08T22:00:07.160Z,8.13
2023-03-08T22:02:44.894Z,8.14
2023-03-08T22:05:16.606Z,8.16
2023-03-08T22:07:48.211Z,8.19
2023-03-08T22:10:20.352Z,8.20
2023-03-08T22:12:51.959Z,8.21
2023-03-08T22:15:23.540Z,8.20
2023-03-08T22:17:55.049Z,8.20
2023-03-08T22:20:27.551Z,8.17
2023-03-08T22:22:59.114Z,8.18
2023-03-08T22:25:30.772Z,8.18
2023-03-08T22:28:03.658Z,8.18
2023-03-08T22:30:35.211Z,8.17
2023-03-08T22:33:07.881Z,8.16
2023-03-08T22:35:39.616Z,8.14
2023-03-08T22:38:12.573Z,8.14
2023-03-08T22:40:44.470Z,8.15
2023-03-08T22:43:16.113Z,8.10
2023-03-08T22:45:47.635Z,8.05
2023-03-08T22:48:19.390Z,8.05
2023-03-08T22:50:58.731Z,8.11
2023-03-08T22:53:41.076Z,8.06
2023-03-08T22:56:21.929Z,8.09
2023-03-08T22:58:53.966Z,8.09
2023-03-08T23:01:27.785Z,8.09
2023-03-08T23:04:01.037Z,8.11
2023-03-08T23:06:35.517Z,8.09
2023-03-08T23:09:12.882Z,8.10
2023-03-08T23:11:45.010Z,8.11
2023-03-08T23:14:16.998Z,8.09
2023-03-08T23:16:48.773Z,8.08
2023-03-08T23:19:21.852Z,8.08
2023-03-08T23:21:53.740Z,8.11
2023-03-08T23:24:25.301Z,8.12
2023-03-08T23:27:01.759Z,8.15
2023-03-08T23:29:33.404Z,8.13
2023-03-08T23:32:05.893Z,8.22
2023-03-08T23:34:38.767Z,8.26
2023-03-08T23:37:11.527Z,8.36
2023-03-08T23:39:43.434Z,8.45
2023-03-08T23:42:15.018Z,8.53
2023-03-08T23:44:46.651Z,8.61
2023-03-08T23:47:18.221Z,8.66
2023-03-08T23:49:49.699Z,8.75
2023-03-08T23:52:21.373Z,8.83
2023-03-08T23:54:53.211Z,8.93
2023-03-08T23:57:26.112Z,9.03
2023-03-08T23:59:58.010Z,9.09
